sensor_id;sensor_type;location;lat;lon;timestamp;P1;durP1;ratioP1;P2;durP2;ratioP2
18338;SDS011;9295;44.484;11.240;2024-01-25T00:01:08;25.47;;;14.37;;
18338;SDS011;9295;44.484;11.240;2024-01-25T00:03:37;32.03;;;14.70;;
18338;SDS011;9295;44.484;11.240;2024-01-25T00:06:05;27.93;;;13.80;;
18338;SDS011;9295;44.484;11.240;2024-01-25T00:08:34;26.20;;;15.40;;
18338;SDS011;9295;44.484;11.240;2024-01-25T00:11:03;28.80;;;16.00;;
18338;SDS011;9295;44.484;11.240;2024-01-25T00:13:33;35.90;;;17.40;;
18338;SDS011;9295;44.484;11.240;2024-01-25T00:16:02;30.40;;;16.70;;
18338;SDS011;9295;44.484;11.240;2024-01-25T00:18:30;37.67;;;19.23;;
18338;SDS011;9295;44.484;11.240;2024-01-25T00:20:59;33.83;;;18.17;;
18338;SDS011;9295;44.484;11.240;2024-01-25T00:23:28;30.97;;;17.30;;
18338;SDS011;9295;44.484;11.240;2024-01-25T00:25:56;33.53;;;16.53;;
18338;SDS011;9295;44.484;11.240;2024-01-25T00:28:26;30.77;;;17.80;;
18338;SDS011;9295;44.484;11.240;2024-01-25T00:30:57;32.90;;;19.87;;
18338;SDS011;9295;44.484;11.240;2024-01-25T00:33:25;33.10;;;18.47;;
18338;SDS011;9295;44.484;11.240;2024-01-25T00:35:54;36.70;;;20.00;;
18338;SDS011;9295;44.484;11.240;2024-01-25T00:38:23;36.07;;;19.20;;
18338;SDS011;9295;44.484;11.240;2024-01-25T00:40:53;41.57;;;21.10;;
18338;SDS011;9295;44.484;11.240;2024-01-25T00:43:23;39.73;;;20.10;;
18338;SDS011;9295;44.484;11.240;2024-01-25T00:45:51;38.43;;;21.57;;
18338;SDS011;9295;44.484;11.240;2024-01-25T00:48:22;34.70;;;20.30;;
18338;SDS011;9295;44.484;11.240;2024-01-25T00:50:51;34.57;;;19.67;;
18338;SDS011;9295;44.484;11.240;2024-01-25T00:53:20;36.00;;;20.80;;
18338;SDS011;9295;44.484;11.240;2024-01-25T00:55:49;37.70;;;19.50;;
18338;SDS011;9295;44.484;11.240;2024-01-25T00:58:18;38.17;;;20.70;;
18338;SDS011;9295;44.484;11.240;2024-01-25T01:00:47;41.93;;;19.67;;
18338;SDS011;9295;44.484;11.240;2024-01-25T01:03:17;31.93;;;17.60;;
18338;SDS011;9295;44.484;11.240;2024-01-25T01:05:48;38.07;;;18.77;;
18338;SDS011;9295;44.484;11.240;2024-01-25T01:08:17;36.57;;;18.80;;
18338;SDS011;9295;44.484;11.240;2024-01-25T01:10:46;45.77;;;19.63;;
18338;SDS011;9295;44.484;11.240;2024-01-25T01:13:15;35.37;;;19.20;;
18338;SDS011;9295;44.484;11.240;2024-01-25T01:15:43;36.60;;;19.27;;
18338;SDS011;9295;44.484;11.240;2024-01-25T01:18:11;38.67;;;18.20;;
18338;SDS011;9295;44.484;11.240;2024-01-25T01:20:40;34.57;;;17.80;;
18338;SDS011;9295;44.484;11.240;2024-01-25T01:23:10;35.10;;;17.60;;
18338;SDS011;9295;44.484;11.240;2024-01-25T01:25:38;37.03;;;19.30;;
18338;SDS011;9295;44.484;11.240;2024-01-25T01:28:07;36.43;;;17.60;;
18338;SDS011;9295;44.484;11.240;2024-01-25T01:30:35;30.23;;;18.10;;
18338;SDS011;9295;44.484;11.240;2024-01-25T01:33:08;31.93;;;16.97;;
18338;SDS011;9295;44.484;11.240;2024-01-25T01:35:36;34.30;;;17.63;;
18338;SDS011;9295;44.484;11.240;2024-01-25T01:38:05;35.03;;;16.23;;
18338;SDS011;9295;44.484;11.240;2024-01-25T01:40:35;30.33;;;15.40;;
18338;SDS011;9295;44.484;11.240;2024-01-25T01:43:04;30.67;;;15.73;;
18338;SDS011;9295;44.484;11.240;2024-01-25T01:45:32;30.67;;;16.20;;
18338;SDS011;9295;44.484;11.240;2024-01-25T01:48:01;33.23;;;17.63;;
18338;SDS011;9295;44.484;11.240;2024-01-25T01:50:30;35.57;;;18.27;;
18338;SDS011;9295;44.484;11.240;2024-01-25T01:52:58;34.70;;;18.77;;
18338;SDS011;9295;44.484;11.240;2024-01-25T01:55:27;38.93;;;17.00;;
18338;SDS011;9295;44.484;11.240;2024-01-25T01:57:57;32.83;;;17.30;;
18338;SDS011;9295;44.484;11.240;2024-01-25T02:00:26;36.43;;;17.67;;
18338;SDS011;9295;44.484;11.240;2024-01-25T02:02:59;40.37;;;17.30;;
18338;SDS011;9295;44.484;11.240;2024-01-25T02:05:28;31.43;;;18.03;;
18338;SDS011;9295;44.484;11.240;2024-01-25T02:07:56;33.60;;;18.80;;
18338;SDS011;9295;44.484;11.240;2024-01-25T02:10:25;39.63;;;18.00;;
18338;SDS011;9295;44.484;11.240;2024-01-25T02:12:53;38.90;;;17.97;;
18338;SDS011;9295;44.484;11.240;2024-01-25T02:15:23;29.53;;;18.10;;
18338;SDS011;9295;44.484;11.240;2024-01-25T02:17:51;35.50;;;17.47;;
18338;SDS011;9295;44.484;11.240;2024-01-25T02:20:20;35.00;;;16.80;;
18338;SDS011;9295;44.484;11.240;2024-01-25T02:22:50;36.47;;;18.37;;
18338;SDS011;9295;44.484;11.240;2024-01-25T02:25:19;33.10;;;19.23;;
18338;SDS011;9295;44.484;11.240;2024-01-25T02:27:48;30.40;;;17.97;;
18338;SDS011;9295;44.484;11.240;2024-01-25T02:30:17;29.97;;;17.30;;
18338;SDS011;9295;44.484;11.240;2024-01-25T02:32:46;36.53;;;16.50;;
18338;SDS011;9295;44.484;11.240;2024-01-25T02:35:15;31.73;;;17.53;;
18338;SDS011;9295;44.484;11.240;2024-01-25T02:37:44;29.00;;;16.43;;
18338;SDS011;9295;44.484;11.240;2024-01-25T02:40:14;33.13;;;17.50;;
18338;SDS011;9295;44.484;11.240;2024-01-25T02:42:43;39.90;;;21.23;;
18338;SDS011;9295;44.484;11.240;2024-01-25T02:45:11;37.43;;;17.17;;
18338;SDS011;9295;44.484;11.240;2024-01-25T02:47:40;37.10;;;18.10;;
18338;SDS011;9295;44.484;11.240;2024-01-25T02:50:08;31.73;;;17.73;;
18338;SDS011;9295;44.484;11.240;2024-01-25T02:52:37;28.83;;;16.23;;
18338;SDS011;9295;44.484;11.240;2024-01-25T02:55:06;29.60;;;16.53;;
18338;SDS011;9295;44.484;11.240;2024-01-25T02:57:36;42.13;;;16.50;;
18338;SDS011;9295;44.484;11.240;2024-01-25T03:00:05;34.10;;;16.07;;
18338;SDS011;9295;44.484;11.240;2024-01-25T03:02:35;25.70;;;15.80;;
18338;SDS011;9295;44.484;11.240;2024-01-25T03:05:04;33.43;;;17.10;;
18338;SDS011;9295;44.484;11.240;2024-01-25T03:07:32;34.10;;;17.53;;
18338;SDS011;9295;44.484;11.240;2024-01-25T03:10:01;37.63;;;18.07;;
18338;SDS011;9295;44.484;11.240;2024-01-25T03:12:31;39.50;;;20.27;;
18338;SDS011;9295;44.484;11.240;2024-01-25T03:15:01;33.27;;;17.80;;
18338;SDS011;9295;44.484;11.240;2024-01-25T03:17:32;39.87;;;17.80;;
18338;SDS011;9295;44.484;11.240;2024-01-25T03:20:01;32.57;;;17.33;;
18338;SDS011;9295;44.484;11.240;2024-01-25T03:22:29;33.33;;;17.37;;
18338;SDS011;9295;44.484;11.240;2024-01-25T03:24:58;39.07;;;17.70;;
18338;SDS011;9295;44.484;11.240;2024-01-25T03:27:26;38.90;;;17.77;;
18338;SDS011;9295;44.484;11.240;2024-01-25T03:29:55;33.43;;;18.43;;
18338;SDS011;9295;44.484;11.240;2024-01-25T03:32:25;32.27;;;17.40;;
18338;SDS011;9295;44.484;11.240;2024-01-25T03:34:55;34.17;;;17.67;;
18338;SDS011;9295;44.484;11.240;2024-01-25T03:37:24;29.67;;;17.80;;
18338;SDS011;9295;44.484;11.240;2024-01-25T03:39:52;42.27;;;18.97;;
18338;SDS011;9295;44.484;11.240;2024-01-25T03:42:21;36.67;;;18.97;;
18338;SDS011;9295;44.484;11.240;2024-01-25T03:44:49;34.90;;;17.00;;
18338;SDS011;9295;44.484;11.240;2024-01-25T03:47:18;30.87;;;18.40;;
18338;SDS011;9295;44.484;11.240;2024-01-25T03:49:48;32.50;;;17.77;;
18338;SDS011;9295;44.484;11.240;2024-01-25T03:52:16;29.47;;;17.80;;
18338;SDS011;9295;44.484;11.240;2024-01-25T03:54:45;26.97;;;16.80;;
18338;SDS011;9295;44.484;11.240;2024-01-25T03:57:13;34.20;;;18.17;;
18338;SDS011;9295;44.484;11.240;2024-01-25T03:59:42;36.70;;;18.60;;
18338;SDS011;9295;44.484;11.240;2024-01-25T04:02:10;31.50;;;17.93;;
18338;SDS011;9295;44.484;11.240;2024-01-25T04:04:39;33.50;;;17.50;;
18338;SDS011;9295;44.484;11.240;2024-01-25T04:07:09;40.17;;;17.60;;
18338;SDS011;9295;44.484;11.240;2024-01-25T04:09:37;38.40;;;18.40;;
18338;SDS011;9295;44.484;11.240;2024-01-25T04:12:06;37.83;;;18.33;;
18338;SDS011;9295;44.484;11.240;2024-01-25T04:14:35;34.67;;;18.63;;
18338;SDS011;9295;44.484;11.240;2024-01-25T04:17:03;35.30;;;18.47;;
18338;SDS011;9295;44.484;11.240;2024-01-25T04:19:32;34.37;;;17.57;;
18338;SDS011;9295;44.484;11.240;2024-01-25T04:22:01;36.03;;;18.10;;
18338;SDS011;9295;44.484;11.240;2024-01-25T04:24:31;36.17;;;17.53;;
18338;SDS011;9295;44.484;11.240;2024-01-25T04:26:59;33.13;;;18.30;;
18338;SDS011;9295;44.484;11.240;2024-01-25T04:29:28;31.33;;;17.50;;
18338;SDS011;9295;44.484;11.240;2024-01-25T04:31:57;31.80;;;17.43;;
18338;SDS011;9295;44.484;11.240;2024-01-25T04:34:25;38.87;;;18.50;;
18338;SDS011;9295;44.484;11.240;2024-01-25T04:36:54;29.37;;;16.80;;
18338;SDS011;9295;44.484;11.240;2024-01-25T04:39:22;37.63;;;17.57;;
18338;SDS011;9295;44.484;11.240;2024-01-25T04:41:52;40.67;;;18.37;;
18338;SDS011;9295;44.484;11.240;2024-01-25T04:44:21;27.77;;;17.10;;
18338;SDS011;9295;44.484;11.240;2024-01-25T04:46:49;32.90;;;17.43;;
18338;SDS011;9295;44.484;11.240;2024-01-25T04:49:18;34.77;;;18.20;;
18338;SDS011;9295;44.484;11.240;2024-01-25T04:51:47;34.60;;;19.30;;
18338;SDS011;9295;44.484;11.240;2024-01-25T04:54:16;35.37;;;18.50;;
18338;SDS011;9295;44.484;11.240;2024-01-25T04:56:45;32.23;;;17.93;;
18338;SDS011;9295;44.484;11.240;2024-01-25T04:59:15;32.43;;;19.10;;
18338;SDS011;9295;44.484;11.240;2024-01-25T05:01:43;34.57;;;18.70;;
18338;SDS011;9295;44.484;11.240;2024-01-25T05:04:12;38.67;;;20.00;;
18338;SDS011;9295;44.484;11.240;2024-01-25T05:06:40;37.20;;;19.60;;
18338;SDS011;9295;44.484;11.240;2024-01-25T05:09:09;42.90;;;21.37;;
18338;SDS011;9295;44.484;11.240;2024-01-25T05:11:38;43.23;;;20.50;;
18338;SDS011;9295;44.484;11.240;2024-01-25T05:14:07;38.10;;;21.77;;
18338;SDS011;9295;44.484;11.240;2024-01-25T05:16:36;32.00;;;19.03;;
18338;SDS011;9295;44.484;11.240;2024-01-25T05:19:05;32.13;;;18.30;;
18338;SDS011;9295;44.484;11.240;2024-01-25T05:21:34;36.40;;;18.33;;
18338;SDS011;9295;44.484;11.240;2024-01-25T05:24:02;40.87;;;19.10;;
18338;SDS011;9295;44.484;11.240;2024-01-25T05:26:31;43.77;;;19.63;;
18338;SDS011;9295;44.484;11.240;2024-01-25T05:29:00;35.10;;;18.83;;
18338;SDS011;9295;44.484;11.240;2024-01-25T05:31:29;31.20;;;18.30;;
18338;SDS011;9295;44.484;11.240;2024-01-25T05:33:59;45.20;;;19.10;;
18338;SDS011;9295;44.484;11.240;2024-01-25T05:36:27;32.73;;;19.03;;
18338;SDS011;9295;44.484;11.240;2024-01-25T05:38:56;34.97;;;19.57;;
18338;SDS011;9295;44.484;11.240;2024-01-25T05:41:24;39.67;;;18.10;;
18338;SDS011;9295;44.484;11.240;2024-01-25T05:43:53;32.73;;;19.20;;
18338;SDS011;9295;44.484;11.240;2024-01-25T05:46:21;36.53;;;20.97;;
18338;SDS011;9295;44.484;11.240;2024-01-25T05:48:50;37.50;;;22.00;;
18338;SDS011;9295;44.484;11.240;2024-01-25T05:51:20;45.67;;;21.63;;
18338;SDS011;9295;44.484;11.240;2024-01-25T05:53:48;36.70;;;21.53;;
18338;SDS011;9295;44.484;11.240;2024-01-25T05:56:17;43.70;;;20.60;;
18338;SDS011;9295;44.484;11.240;2024-01-25T05:58:45;36.47;;;21.00;;
18338;SDS011;9295;44.484;11.240;2024-01-25T06:01:14;35.50;;;19.43;;
18338;SDS011;9295;44.484;11.240;2024-01-25T06:03:42;41.27;;;20.37;;
18338;SDS011;9295;44.484;11.240;2024-01-25T06:06:11;35.10;;;20.20;;
18338;SDS011;9295;44.484;11.240;2024-01-25T06:08:41;41.13;;;19.40;;
18338;SDS011;9295;44.484;11.240;2024-01-25T06:11:20;41.53;;;20.20;;
18338;SDS011;9295;44.484;11.240;2024-01-25T06:13:48;35.23;;;19.83;;
18338;SDS011;9295;44.484;11.240;2024-01-25T06:16:17;35.67;;;21.13;;
18338;SDS011;9295;44.484;11.240;2024-01-25T06:18:45;40.27;;;20.33;;
18338;SDS011;9295;44.484;11.240;2024-01-25T06:21:14;47.63;;;24.70;;
18338;SDS011;9295;44.484;11.240;2024-01-25T06:23:44;43.70;;;23.20;;
18338;SDS011;9295;44.484;11.240;2024-01-25T06:26:13;41.00;;;23.37;;
18338;SDS011;9295;44.484;11.240;2024-01-25T06:28:41;41.80;;;23.53;;
18338;SDS011;9295;44.484;11.240;2024-01-25T06:31:09;44.17;;;21.73;;
18338;SDS011;9295;44.484;11.240;2024-01-25T06:33:39;41.50;;;21.70;;
18338;SDS011;9295;44.484;11.240;2024-01-25T06:36:08;41.83;;;21.83;;
18338;SDS011;9295;44.484;11.240;2024-01-25T06:38:36;35.90;;;21.60;;
18338;SDS011;9295;44.484;11.240;2024-01-25T06:41:06;41.47;;;22.23;;
18338;SDS011;9295;44.484;11.240;2024-01-25T06:43:35;39.13;;;22.73;;
18338;SDS011;9295;44.484;11.240;2024-01-25T06:46:04;38.53;;;21.93;;
18338;SDS011;9295;44.484;11.240;2024-01-25T06:48:33;38.80;;;20.00;;
18338;SDS011;9295;44.484;11.240;2024-01-25T06:51:03;42.20;;;20.67;;
18338;SDS011;9295;44.484;11.240;2024-01-25T06:53:31;34.10;;;19.90;;
18338;SDS011;9295;44.484;11.240;2024-01-25T06:56:00;37.70;;;22.10;;
18338;SDS011;9295;44.484;11.240;2024-01-25T06:58:30;45.80;;;23.87;;
18338;SDS011;9295;44.484;11.240;2024-01-25T07:00:59;37.37;;;21.17;;
18338;SDS011;9295;44.484;11.240;2024-01-25T07:03:28;39.43;;;21.50;;
18338;SDS011;9295;44.484;11.240;2024-01-25T07:05:58;38.70;;;21.73;;
18338;SDS011;9295;44.484;11.240;2024-01-25T07:08:26;45.87;;;23.60;;
18338;SDS011;9295;44.484;11.240;2024-01-25T07:10:55;48.97;;;23.47;;
18338;SDS011;9295;44.484;11.240;2024-01-25T07:13:26;41.77;;;24.37;;
18338;SDS011;9295;44.484;11.240;2024-01-25T07:15:56;46.83;;;23.97;;
18338;SDS011;9295;44.484;11.240;2024-01-25T07:18:25;45.00;;;25.33;;
18338;SDS011;9295;44.484;11.240;2024-01-25T07:20:53;46.10;;;25.67;;
18338;SDS011;9295;44.484;11.240;2024-01-25T07:23:22;43.47;;;23.50;;
18338;SDS011;9295;44.484;11.240;2024-01-25T07:25:51;44.00;;;22.43;;
18338;SDS011;9295;44.484;11.240;2024-01-25T07:28:19;30.67;;;19.70;;
18338;SDS011;9295;44.484;11.240;2024-01-25T07:30:48;28.83;;;19.17;;
18338;SDS011;9295;44.484;11.240;2024-01-25T07:33:19;29.80;;;17.20;;
18338;SDS011;9295;44.484;11.240;2024-01-25T07:35:47;26.47;;;16.97;;
18338;SDS011;9295;44.484;11.240;2024-01-25T07:38:17;26.67;;;17.33;;
18338;SDS011;9295;44.484;11.240;2024-01-25T07:40:45;32.63;;;18.80;;
18338;SDS011;9295;44.484;11.240;2024-01-25T07:43:14;29.73;;;18.67;;
18338;SDS011;9295;44.484;11.240;2024-01-25T07:45:42;30.00;;;19.70;;
18338;SDS011;9295;44.484;11.240;2024-01-25T07:48:11;34.97;;;20.20;;
18338;SDS011;9295;44.484;11.240;2024-01-25T07:50:43;33.60;;;20.07;;
18338;SDS011;9295;44.484;11.240;2024-01-25T07:53:12;32.10;;;20.90;;
18338;SDS011;9295;44.484;11.240;2024-01-25T07:55:43;34.03;;;20.80;;
18338;SDS011;9295;44.484;11.240;2024-01-25T07:58:14;36.50;;;23.37;;
18338;SDS011;9295;44.484;11.240;2024-01-25T08:00:42;33.23;;;21.37;;
18338;SDS011;9295;44.484;11.240;2024-01-25T08:03:12;31.93;;;21.60;;
18338;SDS011;9295;44.484;11.240;2024-01-25T08:05:41;36.17;;;22.67;;
18338;SDS011;9295;44.484;11.240;2024-01-25T08:08:18;26.67;;;19.53;;
18338;SDS011;9295;44.484;11.240;2024-01-25T08:10:47;30.00;;;18.20;;
18338;SDS011;9295;44.484;11.240;2024-01-25T08:13:16;31.60;;;18.43;;
18338;SDS011;9295;44.484;11.240;2024-01-25T08:15:44;28.90;;;18.70;;
18338;SDS011;9295;44.484;11.240;2024-01-25T08:18:13;31.87;;;18.17;;
18338;SDS011;9295;44.484;11.240;2024-01-25T08:20:42;31.57;;;18.70;;
18338;SDS011;9295;44.484;11.240;2024-01-25T08:23:11;29.10;;;19.23;;
18338;SDS011;9295;44.484;11.240;2024-01-25T08:25:42;29.70;;;18.13;;
18338;SDS011;9295;44.484;11.240;2024-01-25T08:28:10;30.30;;;17.73;;
18338;SDS011;9295;44.484;11.240;2024-01-25T08:30:39;34.37;;;18.30;;
18338;SDS011;9295;44.484;11.240;2024-01-25T08:33:08;35.23;;;19.93;;
18338;SDS011;9295;44.484;11.240;2024-01-25T08:35:36;33.13;;;19.27;;
18338;SDS011;9295;44.484;11.240;2024-01-25T08:38:07;37.70;;;20.00;;
18338;SDS011;9295;44.484;11.240;2024-01-25T08:40:36;33.63;;;19.47;;
18338;SDS011;9295;44.484;11.240;2024-01-25T08:43:06;38.97;;;19.00;;
18338;SDS011;9295;44.484;11.240;2024-01-25T08:45:35;32.60;;;18.47;;
18338;SDS011;9295;44.484;11.240;2024-01-25T08:48:04;32.00;;;17.23;;
18338;SDS011;9295;44.484;11.240;2024-01-25T08:50:35;31.20;;;17.43;;
18338;SDS011;9295;44.484;11.240;2024-01-25T08:53:05;32.83;;;17.37;;
18338;SDS011;9295;44.484;11.240;2024-01-25T08:55:33;33.37;;;17.23;;
18338;SDS011;9295;44.484;11.240;2024-01-25T08:58:02;29.73;;;17.10;;
18338;SDS011;9295;44.484;11.240;2024-01-25T09:00:32;27.33;;;16.90;;
18338;SDS011;9295;44.484;11.240;2024-01-25T09:03:01;30.40;;;18.43;;
18338;SDS011;9295;44.484;11.240;2024-01-25T09:05:29;37.23;;;18.80;;
18338;SDS011;9295;44.484;11.240;2024-01-25T09:08:01;34.33;;;18.43;;
18338;SDS011;9295;44.484;11.240;2024-01-25T09:10:30;35.03;;;18.40;;
18338;SDS011;9295;44.484;11.240;2024-01-25T09:12:59;34.40;;;19.73;;
18338;SDS011;9295;44.484;11.240;2024-01-25T09:15:27;36.07;;;20.83;;
18338;SDS011;9295;44.484;11.240;2024-01-25T09:17:57;35.43;;;21.00;;
18338;SDS011;9295;44.484;11.240;2024-01-25T09:20:26;36.50;;;20.17;;
18338;SDS011;9295;44.484;11.240;2024-01-25T09:22:55;34.27;;;19.23;;
18338;SDS011;9295;44.484;11.240;2024-01-25T09:25:23;40.53;;;21.33;;
18338;SDS011;9295;44.484;11.240;2024-01-25T09:27:52;39.53;;;23.13;;
18338;SDS011;9295;44.484;11.240;2024-01-25T09:30:22;45.23;;;24.10;;
18338;SDS011;9295;44.484;11.240;2024-01-25T09:32:51;44.23;;;22.10;;
18338;SDS011;9295;44.484;11.240;2024-01-25T09:35:21;48.40;;;25.50;;
18338;SDS011;9295;44.484;11.240;2024-01-25T09:37:49;47.37;;;25.27;;
18338;SDS011;9295;44.484;11.240;2024-01-25T09:40:20;43.17;;;23.33;;
18338;SDS011;9295;44.484;11.240;2024-01-25T09:42:49;43.57;;;23.93;;
18338;SDS011;9295;44.484;11.240;2024-01-25T09:45:19;44.73;;;23.90;;
18338;SDS011;9295;44.484;11.240;2024-01-25T09:47:49;46.97;;;26.20;;
18338;SDS011;9295;44.484;11.240;2024-01-25T09:50:18;47.37;;;26.07;;
18338;SDS011;9295;44.484;11.240;2024-01-25T09:52:50;50.70;;;26.10;;
18338;SDS011;9295;44.484;11.240;2024-01-25T09:55:22;43.60;;;26.23;;
18338;SDS011;9295;44.484;11.240;2024-01-25T09:57:53;58.50;;;27.83;;
18338;SDS011;9295;44.484;11.240;2024-01-25T10:00:23;45.53;;;27.80;;
18338;SDS011;9295;44.484;11.240;2024-01-25T10:02:55;54.50;;;28.30;;
18338;SDS011;9295;44.484;11.240;2024-01-25T10:05:23;53.33;;;29.00;;
18338;SDS011;9295;44.484;11.240;2024-01-25T10:07:53;49.93;;;29.13;;
18338;SDS011;9295;44.484;11.240;2024-01-25T10:10:31;50.23;;;27.20;;
18338;SDS011;9295;44.484;11.240;2024-01-25T10:13:00;56.20;;;28.97;;
18338;SDS011;9295;44.484;11.240;2024-01-25T10:15:29;51.07;;;28.57;;
18338;SDS011;9295;44.484;11.240;2024-01-25T10:17:58;46.57;;;27.63;;
18338;SDS011;9295;44.484;11.240;2024-01-25T10:20:46;56.93;;;31.87;;
18338;SDS011;9295;44.484;11.240;2024-01-25T10:23:17;71.53;;;32.37;;
18338;SDS011;9295;44.484;11.240;2024-01-25T10:25:45;58.63;;;32.60;;
18338;SDS011;9295;44.484;11.240;2024-01-25T10:28:14;61.60;;;35.00;;
18338;SDS011;9295;44.484;11.240;2024-01-25T10:30:43;61.07;;;35.17;;
18338;SDS011;9295;44.484;11.240;2024-01-25T10:33:12;66.03;;;35.67;;
18338;SDS011;9295;44.484;11.240;2024-01-25T10:35:41;58.40;;;35.03;;
18338;SDS011;9295;44.484;11.240;2024-01-25T10:38:12;59.67;;;36.63;;
18338;SDS011;9295;44.484;11.240;2024-01-25T10:40:44;64.20;;;35.13;;
18338;SDS011;9295;44.484;11.240;2024-01-25T10:43:16;67.63;;;36.33;;
18338;SDS011;9295;44.484;11.240;2024-01-25T10:45:44;63.73;;;36.80;;
18338;SDS011;9295;44.484;11.240;2024-01-25T10:48:14;57.73;;;33.67;;
18338;SDS011;9295;44.484;11.240;2024-01-25T10:50:43;53.00;;;31.33;;
18338;SDS011;9295;44.484;11.240;2024-01-25T10:53:14;57.90;;;34.47;;
18338;SDS011;9295;44.484;11.240;2024-01-25T10:55:45;62.47;;;34.57;;
18338;SDS011;9295;44.484;11.240;2024-01-25T10:58:15;52.90;;;35.00;;
18338;SDS011;9295;44.484;11.240;2024-01-25T11:00:49;51.40;;;32.80;;
18338;SDS011;9295;44.484;11.240;2024-01-25T11:03:20;59.70;;;32.97;;
18338;SDS011;9295;44.484;11.240;2024-01-25T11:05:54;60.17;;;33.30;;
18338;SDS011;9295;44.484;11.240;2024-01-25T11:08:23;62.00;;;35.50;;
18338;SDS011;9295;44.484;11.240;2024-01-25T11:10:53;71.57;;;37.00;;
18338;SDS011;9295;44.484;11.240;2024-01-25T11:13:24;63.67;;;37.03;;
18338;SDS011;9295;44.484;11.240;2024-01-25T11:15:57;64.97;;;38.33;;
18338;SDS011;9295;44.484;11.240;2024-01-25T11:18:26;66.70;;;37.73;;
18338;SDS011;9295;44.484;11.240;2024-01-25T11:20:59;72.43;;;39.03;;
18338;SDS011;9295;44.484;11.240;2024-01-25T11:23:31;64.70;;;37.23;;
18338;SDS011;9295;44.484;11.240;2024-01-25T11:26:01;64.47;;;38.43;;
18338;SDS011;9295;44.484;11.240;2024-01-25T11:28:30;64.30;;;38.57;;
18338;SDS011;9295;44.484;11.240;2024-01-25T11:30:59;73.83;;;42.50;;
18338;SDS011;9295;44.484;11.240;2024-01-25T11:33:28;59.83;;;38.30;;
18338;SDS011;9295;44.484;11.240;2024-01-25T11:35:56;75.77;;;38.73;;
18338;SDS011;9295;44.484;11.240;2024-01-25T11:38:25;62.70;;;39.30;;
18338;SDS011;9295;44.484;11.240;2024-01-25T11:40:56;63.30;;;39.43;;
18338;SDS011;9295;44.484;11.240;2024-01-25T11:43:26;61.73;;;40.13;;
18338;SDS011;9295;44.484;11.240;2024-01-25T11:45:55;70.23;;;38.73;;
18338;SDS011;9295;44.484;11.240;2024-01-25T11:48:23;69.30;;;38.67;;
18338;SDS011;9295;44.484;11.240;2024-01-25T11:50:54;62.87;;;37.47;;
18338;SDS011;9295;44.484;11.240;2024-01-25T11:53:23;64.60;;;39.80;;
18338;SDS011;9295;44.484;11.240;2024-01-25T11:55:52;75.03;;;39.03;;
18338;SDS011;9295;44.484;11.240;2024-01-25T11:58:24;68.07;;;39.53;;
18338;SDS011;9295;44.484;11.240;2024-01-25T12:00:57;64.83;;;40.73;;
18338;SDS011;9295;44.484;11.240;2024-01-25T12:03:26;69.43;;;45.20;;
18338;SDS011;9295;44.484;11.240;2024-01-25T12:05:55;70.23;;;43.30;;
18338;SDS011;9295;44.484;11.240;2024-01-25T12:08:26;76.37;;;44.93;;
18338;SDS011;9295;44.484;11.240;2024-01-25T12:11:02;81.60;;;46.57;;
18338;SDS011;9295;44.484;11.240;2024-01-25T12:13:32;87.50;;;49.27;;
18338;SDS011;9295;44.484;11.240;2024-01-25T12:16:03;83.20;;;49.90;;
18338;SDS011;9295;44.484;11.240;2024-01-25T12:18:33;88.53;;;50.80;;
18338;SDS011;9295;44.484;11.240;2024-01-25T12:21:05;81.20;;;48.50;;
18338;SDS011;9295;44.484;11.240;2024-01-25T12:23:34;82.60;;;49.90;;
18338;SDS011;9295;44.484;11.240;2024-01-25T12:26:04;85.20;;;51.67;;
18338;SDS011;9295;44.484;11.240;2024-01-25T12:28:34;89.17;;;51.63;;
18338;SDS011;9295;44.484;11.240;2024-01-25T12:31:04;95.00;;;49.20;;
18338;SDS011;9295;44.484;11.240;2024-01-25T12:33:34;103.27;;;53.40;;
18338;SDS011;9295;44.484;11.240;2024-01-25T12:36:04;98.20;;;57.63;;
18338;SDS011;9295;44.484;11.240;2024-01-25T12:38:34;94.20;;;55.50;;
18338;SDS011;9295;44.484;11.240;2024-01-25T12:41:05;96.03;;;56.10;;
18338;SDS011;9295;44.484;11.240;2024-01-25T12:43:34;100.27;;;54.83;;
18338;SDS011;9295;44.484;11.240;2024-01-25T12:46:05;105.17;;;55.70;;
18338;SDS011;9295;44.484;11.240;2024-01-25T12:48:52;113.17;;;58.00;;
18338;SDS011;9295;44.484;11.240;2024-01-25T12:51:24;105.27;;;63.83;;
18338;SDS011;9295;44.484;11.240;2024-01-25T12:53:53;107.73;;;63.07;;
18338;SDS011;9295;44.484;11.240;2024-01-25T12:56:23;113.20;;;61.17;;
18338;SDS011;9295;44.484;11.240;2024-01-25T12:58:53;113.23;;;61.10;;
18338;SDS011;9295;44.484;11.240;2024-01-25T13:01:23;108.47;;;60.93;;
18338;SDS011;9295;44.484;11.240;2024-01-25T13:03:53;102.13;;;61.07;;
18338;SDS011;9295;44.484;11.240;2024-01-25T13:06:22;115.80;;;62.00;;
18338;SDS011;9295;44.484;11.240;2024-01-25T13:08:51;118.63;;;62.93;;
18338;SDS011;9295;44.484;11.240;2024-01-25T13:11:20;107.10;;;64.60;;
18338;SDS011;9295;44.484;11.240;2024-01-25T13:13:49;110.17;;;60.03;;
18338;SDS011;9295;44.484;11.240;2024-01-25T13:16:18;104.33;;;62.07;;
18338;SDS011;9295;44.484;11.240;2024-01-25T13:18:49;108.93;;;62.37;;
18338;SDS011;9295;44.484;11.240;2024-01-25T13:21:19;103.77;;;60.13;;
18338;SDS011;9295;44.484;11.240;2024-01-25T13:23:49;114.70;;;65.87;;
18338;SDS011;9295;44.484;11.240;2024-01-25T13:26:17;103.90;;;60.50;;
18338;SDS011;9295;44.484;11.240;2024-01-25T13:28:46;117.90;;;62.60;;
18338;SDS011;9295;44.484;11.240;2024-01-25T13:31:16;117.27;;;67.73;;
18338;SDS011;9295;44.484;11.240;2024-01-25T13:33:44;129.33;;;69.20;;
18338;SDS011;9295;44.484;11.240;2024-01-25T13:36:16;121.37;;;67.40;;
18338;SDS011;9295;44.484;11.240;2024-01-25T13:38:46;127.37;;;74.40;;
18338;SDS011;9295;44.484;11.240;2024-01-25T13:41:15;127.73;;;74.53;;
18338;SDS011;9295;44.484;11.240;2024-01-25T13:43:44;147.03;;;84.20;;
18338;SDS011;9295;44.484;11.240;2024-01-25T13:46:12;134.63;;;78.83;;
18338;SDS011;9295;44.484;11.240;2024-01-25T13:48:45;152.10;;;83.30;;
18338;SDS011;9295;44.484;11.240;2024-01-25T13:51:13;144.50;;;83.33;;
18338;SDS011;9295;44.484;11.240;2024-01-25T13:53:45;137.07;;;83.90;;
18338;SDS011;9295;44.484;11.240;2024-01-25T13:56:17;153.27;;;87.40;;
18338;SDS011;9295;44.484;11.240;2024-01-25T13:58:46;150.60;;;87.57;;
18338;SDS011;9295;44.484;11.240;2024-01-25T14:01:14;161.60;;;92.00;;
18338;SDS011;9295;44.484;11.240;2024-01-25T14:03:43;165.07;;;88.90;;
18338;SDS011;9295;44.484;11.240;2024-01-25T14:06:12;152.20;;;86.53;;
18338;SDS011;9295;44.484;11.240;2024-01-25T14:08:42;162.67;;;88.87;;
18338;SDS011;9295;44.484;11.240;2024-01-25T14:11:11;147.30;;;89.80;;
18338;SDS011;9295;44.484;11.240;2024-01-25T14:13:40;152.80;;;87.50;;
18338;SDS011;9295;44.484;11.240;2024-01-25T14:16:08;169.13;;;93.93;;
18338;SDS011;9295;44.484;11.240;2024-01-25T14:18:43;175.57;;;95.67;;
18338;SDS011;9295;44.484;11.240;2024-01-25T14:21:12;158.17;;;91.70;;
18338;SDS011;9295;44.484;11.240;2024-01-25T14:23:46;161.87;;;89.50;;
18338;SDS011;9295;44.484;11.240;2024-01-25T14:26:15;167.73;;;89.30;;
18338;SDS011;9295;44.484;11.240;2024-01-25T14:28:44;155.13;;;90.20;;
18338;SDS011;9295;44.484;11.240;2024-01-25T14:31:12;174.20;;;90.47;;
18338;SDS011;9295;44.484;11.240;2024-01-25T14:33:41;177.40;;;91.60;;